Time;durP1;ratioP1;P1;durP2;ratioP2;P2;SDS_P1;SDS_P2;PMS_P1;PMS_P2;Temp;Humidity;BMP_temperature;BMP_pressure;BME280_temperature;BME280_humidity;BME280_pressure;Samples;Min_cycle;Max_cycle;Signal;HPM_P1;HPM_P2
2023/06/18 00:02:02;;;;;;;18.67;11.95;;;;;;;13.44;54.22;101483.91;4968044;28;20049;-75
2023/06/18 00:04:28;;;;;;;23.13;11.52;;;;;;;13.22;54.60;101486.59;4967265;28;20045;-74
2023/06/18 00:06:54;;;;;;;20.48;11.30;;;;;;;13.07;55.08;101488.09;4967353;28;20046;-74
2023/06/18 00:09:21;;;;;;;21.63;10.48;;;;;;;12.85;55.52;101479.38;4952072;28;20066;-74
2023/06/18 00:11:47;;;;;;;20.50;10.20;;;;;;;12.78;55.44;101483.13;4967203;28;20893;-74
2023/06/18 00:14:12;;;;;;;42.40;12.52;;;;;;;12.92;55.14;101475.59;4969598;28;20046;-74
2023/06/18 00:16:38;;;;;;;36.85;12.43;;;;;;;12.89;55.68;101483.56;4963321;28;20073;-74
2023/06/18 00:19:03;;;;;;;30.40;11.55;;;;;;;12.84;56.10;101490.75;4969236;28;20042;-75
2023/06/18 00:21:29;;;;;;;16.90;10.23;;;;;;;12.78;56.10;101485.75;4963083;28;20555;-74
2023/06/18 00:23:54;;;;;;;16.65;10.82;;;;;;;12.93;56.24;101479.91;4966754;28;20034;-74
2023/06/18 00:26:20;;;;;;;23.60;11.63;;;;;;;12.97;56.50;101481.50;4965253;28;20093;-74
2023/06/18 00:28:48;;;;;;;31.48;12.35;;;;;;;13.01;56.22;101482.22;4965660;28;21517;-74
2023/06/18 00:31:13;;;;;;;21.25;10.55;;;;;;;13.09;56.24;101490.63;4964549;28;20464;-74
2023/06/18 00:33:39;;;;;;;13.02;8.93;;;;;;;13.04;56.08;101485.56;4963862;28;20583;-73
2023/06/18 00:36:07;;;;;;;15.38;8.90;;;;;;;13.03;55.55;101485.66;4965500;28;20061;-72
2023/06/18 00:38:37;;;;;;;10.10;7.22;;;;;;;13.00;55.98;101480.50;4960464;28;20285;-74
2023/06/18 00:41:02;;;;;;;15.60;7.78;;;;;;;12.98;56.16;101483.22;4950644;28;20046;-73
2023/06/18 00:43:28;;;;;;;11.35;7.95;;;;;;;12.88;55.76;101476.63;4964836;28;20080;-72
2023/06/18 00:46:01;;;;;;;20.02;8.75;;;;;;;12.84;55.83;101488.16;4964241;28;20042;-72
2023/06/18 00:48:27;;;;;;;19.40;7.75;;;;;;;12.89;56.16;101488.81;4966450;28;20205;-72
2023/06/18 00:50:53;;;;;;;11.63;8.23;;;;;;;12.93;56.06;101490.41;4963673;28;20603;-71
2023/06/18 00:53:20;;;;;;;12.75;8.18;;;;;;;12.85;55.58;101488.09;4965652;28;20391;-70
2023/06/18 00:55:47;;;;;;;20.60;8.35;;;;;;;12.78;55.59;101485.75;4963368;28;20282;-70
2023/06/18 00:58:13;;;;;;;15.15;8.45;;;;;;;12.82;56.09;101487.34;4978585;28;20070;-70
2023/06/18 01:00:40;;;;;;;11.65;7.80;;;;;;;12.81;56.12;101485.66;4967913;28;20057;-70
2023/06/18 01:03:15;;;;;;;11.02;8.05;;;;;;;12.94;55.51;101491.25;4972443;28;20042;-71
2023/06/18 01:05:45;;;;;;;10.38;7.55;;;;;;;13.15;55.04;101492.16;4961869;28;20057;-71
2023/06/18 01:08:12;;;;;;;9.75;7.53;;;;;;;13.20;54.95;101483.16;4967097;28;20045;-71
2023/06/18 01:10:40;;;;;;;10.65;7.38;;;;;;;13.28;54.63;101493.38;4960029;28;20046;-71
2023/06/18 01:13:19;;;;;;;9.93;7.40;;;;;;;13.21;54.74;101490.13;4966431;28;20044;-70
2023/06/18 01:15:45;;;;;;;10.90;7.97;;;;;;;13.19;55.09;101491.97;4959704;28;20040;-71
2023/06/18 01:18:12;;;;;;;10.82;7.70;;;;;;;13.03;54.81;101490.91;4967042;28;20034;-76
2023/06/18 01:20:41;;;;;;;16.85;9.38;;;;;;;13.11;55.22;101483.53;4963118;28;20050;-75
2023/06/18 01:23:21;;;;;;;14.82;8.23;;;;;;;13.15;54.86;101482.50;4965868;28;20053;-76
2023/06/18 01:25:47;;;;;;;14.18;8.13;;;;;;;13.25;55.18;101481.22;4963806;28;20359;-77
2023/06/18 01:28:13;;;;;;;35.00;8.85;;;;;;;13.28;54.25;101490.75;4966926;28;20038;-77
2023/06/18 01:30:39;;;;;;;12.07;7.47;;;;;;;13.31;54.71;101490.59;4962573;28;20519;-76
2023/06/18 01:33:09;;;;;;;12.50;8.15;;;;;;;13.41;54.54;101491.09;4966155;28;20038;-76
2023/06/18 01:35:34;;;;;;;11.93;7.95;;;;;;;13.47;54.55;101496.06;4980173;28;20046;-76
2023/06/18 01:38:32;;;;;;;13.48;9.07;;;;;;;13.49;54.44;101481.09;4964497;28;20046;-69
2023/06/18 01:41:24;;;;;;;13.60;8.05;;;;;;;13.28;54.20;101485.50;4961993;28;20057;-70
2023/06/18 01:43:57;;;;;;;23.40;9.23;;;;;;;13.16;54.21;101491.22;4962770;28;20057;-70
2023/06/18 01:46:28;;;;;;;17.65;9.35;;;;;;;13.13;54.90;101501.88;4957249;28;20042;-70
2023/06/18 01:49:02;;;;;;;12.27;8.68;;;;;;;13.02;55.42;101491.78;4966006;28;20044;-70
2023/06/18 01:51:30;;;;;;;14.73;9.93;;;;;;;13.18;55.18;101484.16;4966938;28;20344;-70
2023/06/18 01:53:57;;;;;;;25.90;10.23;;;;;;;13.24;54.69;101489.16;4959726;28;20118;-70
2023/06/18 01:56:28;;;;;;;17.67;9.55;;;;;;;13.23;54.72;101482.22;4963005;28;20042;-72
2023/06/18 01:58:54;;;;;;;13.02;9.23;;;;;;;13.15;54.98;101484.28;4963969;28;20045;-72
2023/06/18 02:01:20;;;;;;;27.50;10.60;;;;;;;13.19;54.58;101480.63;4959710;28;20039;-72
2023/06/18 02:03:46;;;;;;;16.83;10.57;;;;;;;13.23;55.25;101487.47;4963108;28;20257;-71
2023/06/18 02:06:13;;;;;;;18.23;9.90;;;;;;;13.32;54.53;101489.69;4965265;28;20042;-72
2023/06/18 02:08:41;;;;;;;14.05;9.88;;;;;;;13.39;54.52;101490.28;4964146;28;20033;-71
2023/06/18 02:11:08;;;;;;;23.27;11.90;;;;;;;13.25;54.61;101489.09;4963111;28;20129;-71
2023/06/18 02:13:34;;;;;;;16.67;11.43;;;;;;;13.24;55.05;101486.53;4964805;28;22731;-71
2023/06/18 02:16:00;;;;;;;17.65;10.63;;;;;;;13.28;55.07;101480.22;4963454;28;20042;-72
2023/06/18 02:18:30;;;;;;;22.52;11.50;;;;;;;13.31;55.17;101480.09;4963745;28;20031;-74
2023/06/18 02:20:56;;;;;;;15.63;9.13;;;;;;;13.28;54.75;101485.50;4961497;28;21029;-74
2023/06/18 02:23:22;;;;;;;14.95;10.05;;;;;;;13.21;55.18;101476.16;4963595;28;20089;-73
2023/06/18 02:25:49;;;;;;;19.20;10.68;;;;;;;13.06;55.26;101475.03;4965027;28;20049;-73
2023/06/18 02:28:15;;;;;;;16.75;11.10;;;;;;;12.95;55.67;101477.22;4969225;28;20034;-74
2023/06/18 02:30:41;;;;;;;14.63;9.75;;;;;;;12.96;55.84;101482.41;4963361;28;20672;-73
2023/06/18 02:33:06;;;;;;;20.77;9.50;;;;;;;13.00;55.99;101481.34;4965702;28;20034;-73
2023/06/18 02:35:32;;;;;;;43.13;10.30;;;;;;;12.95;55.40;101483.31;4966307;28;20839;-73
2023/06/18 02:37:58;;;;;;;72.80;11.60;;;;;;;12.54;55.96;101483.16;4963769;28;20073;-74
2023/06/18 02:40:24;;;;;;;15.38;8.07;;;;;;;12.60;56.54;101485.56;4964266;28;20046;-73
2023/06/18 02:42:52;;;;;;;14.73;8.25;;;;;;;12.49;56.08;101479.84;4978791;28;20038;-74
2023/06/18 02:45:24;;;;;;;44.72;10.50;;;;;;;12.31;56.35;101484.03;4955351;28;20051;-74
2023/06/18 02:47:50;;;;;;;36.10;10.25;;;;;;;12.24;57.17;101483.41;4963395;28;20026;-73
2023/06/18 02:50:18;;;;;;;15.30;8.88;;;;;;;12.26;57.53;101491.22;4962698;28;20277;-74
2023/06/18 02:52:45;;;;;;;13.15;8.38;;;;;;;12.22;56.93;101480.00;4951993;28;20030;-70
2023/06/18 02:55:11;;;;;;;24.63;9.85;;;;;;;12.42;56.46;101488.88;4962795;28;20034;-70
2023/06/18 02:57:37;;;;;;;12.55;7.95;;;;;;;12.45;56.47;101487.00;4965098;28;20499;-70
2023/06/18 03:00:09;;;;;;;21.90;7.35;;;;;;;12.47;55.97;101484.31;4960117;28;20038;-71
2023/06/18 03:02:35;;;;;;;17.73;6.88;;;;;;;12.27;56.46;101485.91;4961687;28;20068;-71
2023/06/18 03:05:03;;;;;;;26.02;6.63;;;;;;;12.46;55.80;101486.06;4960937;28;20051;-70
2023/06/18 03:07:29;;;;;;;7.65;4.72;;;;;;;12.43;56.47;101480.09;4962068;28;20043;-70
2023/06/18 03:09:55;;;;;;;23.73;5.43;;;;;;;12.24;56.17;101483.41;4964381;28;20064;-69
2023/06/18 03:12:21;;;;;;;40.20;5.55;;;;;;;12.10;56.56;101477.81;4960251;28;20145;-69
2023/06/18 03:14:48;;;;;;;23.98;6.45;;;;;;;12.08;57.00;101480.50;4962903;28;20198;-72
2023/06/18 03:17:14;;;;;;;28.45;5.50;;;;;;;11.99;57.05;101482.59;4964085;28;20042;-71
2023/06/18 03:19:40;;;;;;;17.67;6.30;;;;;;;11.96;57.78;101480.09;4958594;28;20122;-72
2023/06/18 03:22:05;;;;;;;13.30;6.93;;;;;;;12.10;56.97;101475.19;4961359;28;20030;-71
2023/06/18 03:24:33;;;;;;;9.30;6.00;;;;;;;12.36;56.89;101474.25;4958495;28;20046;-72
2023/06/18 03:26:59;;;;;;;24.33;6.25;;;;;;;12.34;56.23;101470.81;4967613;28;20046;-71
2023/06/18 03:29:26;;;;;;;18.75;6.47;;;;;;;12.32;56.47;101467.41;4950690;28;20030;-73
2023/06/18 03:31:55;;;;;;;26.45;5.43;;;;;;;12.22;57.08;101477.38;4964868;28;20045;-70
2023/06/18 03:34:22;;;;;;;20.70;5.60;;;;;;;12.35;56.91;101476.91;4966405;28;20065;-70
2023/06/18 03:36:49;;;;;;;15.57;6.00;;;;;;;12.34;56.99;101489.16;4979536;28;20130;-70
2023/06/18 03:39:16;;;;;;;8.05;4.95;;;;;;;12.40;56.71;101490.69;4964535;28;20417;-71
2023/06/18 03:41:42;;;;;;;7.35;4.88;;;;;;;12.14;56.90;101482.03;4965476;28;20069;-70
2023/06/18 03:44:09;;;;;;;7.72;5.43;;;;;;;12.32;57.25;101492.75;4964694;28;20033;-70
2023/06/18 03:46:34;;;;;;;7.55;5.68;;;;;;;12.42;57.08;101486.25;4965459;28;20190;-70
2023/06/18 03:49:00;;;;;;;8.70;5.35;;;;;;;12.39;56.53;101483.75;4965866;28;20036;-70
2023/06/18 03:51:26;;;;;;;5.90;4.25;;;;;;;12.37;56.64;101486.41;4966673;28;20916;-70
2023/06/18 03:53:52;;;;;;;29.55;5.22;;;;;;;12.32;56.45;101487.53;4963057;28;20343;-69
2023/06/18 03:56:19;;;;;;;11.15;5.38;;;;;;;12.51;56.34;101488.50;4956178;28;20076;-68
2023/06/18 03:58:46;;;;;;;9.40;5.03;;;;;;;12.63;56.70;101482.81;4969363;28;20945;-71
2023/06/18 04:01:12;;;;;;;16.60;5.57;;;;;;;12.67;57.00;101483.56;4953409;28;20042;-71
2023/06/18 04:03:39;;;;;;;13.25;5.45;;;;;;;12.72;56.59;101486.03;4963940;28;20213;-71
2023/06/18 04:06:06;;;;;;;12.30;6.05;;;;;;;12.72;56.70;101480.78;4980688;28;20760;-70
2023/06/18 04:08:32;;;;;;;9.73;4.90;;;;;;;12.80;56.79;101486.56;4966877;28;20480;-70
2023/06/18 04:10:58;;;;;;;18.25;6.80;;;;;;;12.80;57.08;101479.53;4960565;28;20042;-69
2023/06/18 04:13:24;;;;;;;9.68;5.70;;;;;;;12.93;57.40;101476.44;4964476;28;20566;-71
2023/06/18 04:15:50;;;;;;;10.68;6.32;;;;;;;13.01;57.12;101469.97;4963172;28;20066;-69
2023/06/18 04:18:16;;;;;;;13.10;6.68;;;;;;;13.28;57.27;101469.75;4965471;28;20307;-69
2023/06/18 04:20:41;;;;;;;15.23;7.35;;;;;;;13.44;56.87;101473.41;4964939;28;20049;-70
2023/06/18 04:23:08;;;;;;;47.08;7.05;;;;;;;13.31;56.00;101483.56;4963583;28;20034;-69
2023/06/18 04:25:37;;;;;;;18.92;6.82;;;;;;;13.43;57.17;101481.34;4963059;28;20042;-70
2023/06/18 04:28:03;;;;;;;13.93;7.45;;;;;;;13.51;57.21;101477.47;4964805;28;20068;-69
2023/06/18 04:30:29;;;;;;;22.10;7.55;;;;;;;13.64;56.86;101482.25;4963351;28;21064;-69
2023/06/18 04:32:55;;;;;;;20.10;8.10;;;;;;;13.64;56.30;101482.25;4961688;28;20128;-69
2023/06/18 04:35:21;;;;;;;29.98;8.75;;;;;;;13.50;56.66;101473.16;4963022;28;20038;-68
2023/06/18 04:37:47;;;;;;;16.08;7.88;;;;;;;13.53;56.75;101475.63;4964519;28;20057;-69
2023/06/18 04:40:13;;;;;;;13.98;7.80;;;;;;;13.52;57.06;101473.09;4963500;28;20038;-69
2023/06/18 04:42:40;;;;;;;21.10;8.95;;;;;;;13.69;56.48;101470.59;4961155;28;20129;-68
2023/06/18 04:45:11;;;;;;;16.00;8.35;;;;;;;13.83;56.77;101467.38;4969839;28;20042;-69
2023/06/18 04:47:37;;;;;;;21.33;10.02;;;;;;;13.96;56.89;101466.84;4967026;28;20061;-69
2023/06/18 04:50:06;;;;;;;19.02;7.70;;;;;;;13.83;56.17;101461.25;4960080;28;20137;-69
2023/06/18 04:52:35;;;;;;;16.15;8.43;;;;;;;14.10;55.98;101454.78;4956756;28;20262;-69
2023/06/18 04:55:01;;;;;;;15.98;8.20;;;;;;;14.12;56.11;101462.56;4961496;28;20039;-69
2023/06/18 04:57:30;;;;;;;14.73;8.25;;;;;;;14.32;56.18;101459.91;4945624;28;20042;-69
2023/06/18 04:59:56;;;;;;;18.15;7.15;;;;;;;14.36;55.60;101455.34;4950723;28;20038;-69
2023/06/18 05:02:23;;;;;;;16.15;7.38;;;;;;;14.42;55.10;101456.88;4959064;28;20053;-69
2023/06/18 05:04:48;;;;;;;15.63;8.25;;;;;;;14.63;55.28;101458.47;4947033;28;20089;-73
2023/06/18 05:07:15;;;;;;;14.88;7.28;;;;;;;14.76;54.39;101464.84;4946080;28;22144;-74
2023/06/18 05:09:41;;;;;;;13.27;7.05;;;;;;;14.72;53.96;101462.44;4920589;28;1284107;-67
2023/06/18 05:12:08;;;;;;;11.75;6.50;;;;;;;14.79;54.23;101468.25;4905861;28;20120;-67
2023/06/18 05:14:34;;;;;;;16.55;6.20;;;;;;;14.85;54.52;101468.81;4952347;28;20034;-68
2023/06/18 05:17:00;;;;;;;11.88;6.65;;;;;;;14.95;53.60;101464.81;4966657;28;20088;-68
2023/06/18 05:19:26;;;;;;;12.02;6.60;;;;;;;14.95;53.11;101463.97;4973462;28;20524;-68
2023/06/18 05:21:51;;;;;;;14.00;6.80;;;;;;;14.94;53.12;101472.78;4936015;28;20060;-73
2023/06/18 05:24:19;;;;;;;13.18;6.43;;;;;;;14.95;53.27;101470.06;4971882;28;20031;-72
2023/06/18 05:26:45;;;;;;;17.10;8.23;;;;;;;15.13;53.72;101470.94;4979375;28;20507;-72
2023/06/18 05:29:10;;;;;;;15.40;7.32;;;;;;;15.13;53.35;101472.72;4964808;28;20729;-70
2023/06/18 05:31:37;;;;;;;14.25;7.10;;;;;;;15.02;54.20;101469.78;4960320;28;20137;-72
2023/06/18 05:34:07;;;;;;;15.55;7.82;;;;;;;15.20;53.97;101468.84;4963491;28;20042;-70
2023/06/18 05:36:33;;;;;;;10.98;6.78;;;;;;;15.40;53.53;101473.16;4963089;28;20678;-70
2023/06/18 05:39:00;;;;;;;14.15;7.20;;;;;;;15.57;53.26;101467.88;4962983;28;20042;-72
2023/06/18 05:41:27;;;;;;;14.38;8.55;;;;;;;15.66;52.99;101468.31;4963018;28;20733;-73
2023/06/18 05:43:53;;;;;;;14.77;8.15;;;;;;;15.84;52.34;101470.00;4965680;28;20030;-73
2023/06/18 05:46:18;;;;;;;17.80;9.35;;;;;;;15.95;52.12;101478.19;4962996;28;20574;-73
2023/06/18 05:48:44;;;;;;;17.58;9.57;;;;;;;15.84;52.46;101483.19;4963404;28;20691;-73
2023/06/18 05:51:17;;;;;;;17.08;8.98;;;;;;;16.05;52.06;101483.84;4960177;28;20653;-74
2023/06/18 05:53:43;;;;;;;19.95;8.65;;;;;;;16.14;51.04;101483.34;4963446;28;20057;-73
2023/06/18 05:56:09;;;;;;;15.93;8.18;;;;;;;16.47;51.74;101489.50;4962851;28;20500;-73
2023/06/18 05:58:35;;;;;;;14.10;9.23;;;;;;;16.28;51.62;101485.22;4962142;28;20092;-73
2023/06/18 06:01:03;;;;;;;17.92;10.20;;;;;;;16.20;51.07;101488.28;4961487;28;20827;-73
2023/06/18 06:03:30;;;;;;;18.55;9.52;;;;;;;16.20;50.69;101488.28;4962300;28;20089;-73
2023/06/18 06:05:56;;;;;;;15.15;8.73;;;;;;;16.35;51.30;101485.75;4962636;28;20153;-71
2023/06/18 06:08:22;;;;;;;17.63;9.75;;;;;;;16.46;50.96;101488.63;4963715;28;20022;-71
2023/06/18 06:10:53;;;;;;;14.70;8.25;;;;;;;16.60;50.16;101493.16;4962469;28;20042;-74
2023/06/18 06:13:19;;;;;;;16.58;9.13;;;;;;;16.95;49.90;101495.63;4962426;28;20241;-74
2023/06/18 06:15:47;;;;;;;18.38;9.15;;;;;;;17.12;50.62;101492.88;4962852;28;20431;-73
2023/06/18 06:18:12;;;;;;;15.90;7.90;;;;;;;17.16;49.42;101489.09;4964690;28;20034;-71
2023/06/18 06:20:38;;;;;;;17.80;8.48;;;;;;;17.85;47.97;101484.19;4961143;28;20627;-73
2023/06/18 06:23:05;;;;;;;16.13;8.75;;;;;;;17.39;47.59;101495.69;4963695;28;20046;-73
2023/06/18 06:25:30;;;;;;;15.55;9.43;;;;;;;17.56;47.81;101492.06;4963344;28;20054;-73
2023/06/18 06:27:57;;;;;;;14.02;8.50;;;;;;;17.57;48.77;101499.03;4963472;28;20133;-73
2023/06/18 06:30:23;;;;;;;13.20;9.15;;;;;;;17.61;48.12;101500.56;4962469;28;20337;-73
2023/06/18 06:32:52;;;;;;;13.98;8.93;;;;;;;17.68;47.70;101505.50;4953580;28;20041;-73
2023/06/18 06:35:17;;;;;;;12.80;7.90;;;;;;;17.62;47.87;101510.19;4962889;28;20038;-73
2023/06/18 06:37:43;;;;;;;17.08;9.40;;;;;;;17.49;47.68;101516.28;4978504;28;20114;-73
2023/06/18 06:40:09;;;;;;;11.80;8.20;;;;;;;18.45;46.54;101513.06;4963837;28;20901;-73
2023/06/18 06:42:36;;;;;;;14.13;9.25;;;;;;;19.09;44.44;101515.16;4962764;28;20026;-73
2023/06/18 06:45:27;;;;;;;10.57;7.70;;;;;;;19.59;44.05;101510.06;4963207;28;20038;-73
2023/06/18 06:48:19;;;;;;;11.30;8.32;;;;;;;20.61;40.32;101509.13;4963041;28;20562;-73
2023/06/18 06:50:50;;;;;;;13.55;7.28;;;;;;;21.78;39.42;101514.53;4966020;28;20464;-74
2023/06/18 06:53:21;;;;;;;11.65;8.30;;;;;;;21.82;37.96;101517.78;4948857;28;20054;-73
2023/06/18 06:55:47;;;;;;;9.13;7.28;;;;;;;22.75;36.87;101522.84;4953370;28;20038;-73
2023/06/18 06:58:15;;;;;;;16.98;8.57;;;;;;;22.09;37.82;101510.34;4963332;28;20061;-73
2023/06/18 07:00:41;;;;;;;14.85;8.90;;;;;;;21.05;38.89;101510.34;4959354;28;20038;-72
2023/06/18 07:03:08;;;;;;;12.48;9.32;;;;;;;20.57;40.78;101515.59;4965358;28;20046;-74
2023/06/18 07:05:34;;;;;;;13.25;8.63;;;;;;;20.06;43.08;101520.06;4965361;28;20039;-73
2023/06/18 07:08:02;;;;;;;13.52;9.45;;;;;;;21.13;40.27;101515.91;4972059;28;20034;-74
2023/06/18 07:10:28;;;;;;;13.90;9.90;;;;;;;23.10;36.84;101511.09;4958180;28;20286;-73
2023/06/18 07:12:54;;;;;;;12.07;7.40;;;;;;;26.33;32.41;101508.75;4963044;28;20106;-72
2023/06/18 07:15:19;;;;;;;10.05;6.97;;;;;;;27.52;29.31;101510.19;4960982;28;20048;-71
2023/06/18 07:17:45;;;;;;;10.77;7.68;;;;;;;26.66;30.86;101497.41;4961241;28;20455;-72
2023/06/18 07:20:11;;;;;;;12.70;8.65;;;;;;;27.20;30.47;101493.84;4962432;28;20130;-72
2023/06/18 07:22:36;;;;;;;11.90;8.70;;;;;;;28.79;27.66;101492.41;4959180;28;20548;-73
2023/06/18 07:25:03;;;;;;;12.35;9.38;;;;;;;29.41;26.09;101489.16;4964766;28;20039;-72
2023/06/18 07:27:28;;;;;;;13.85;9.38;;;;;;;29.43;26.74;101500.59;4962517;28;20404;-72
2023/06/18 07:29:53;;;;;;;13.35;9.75;;;;;;;28.62;26.93;101494.22;4962389;28;20483;-73
2023/06/18 07:32:20;;;;;;;10.13;7.25;;;;;;;29.44;25.89;101499.59;4958954;28;20050;-72
2023/06/18 07:34:45;;;;;;;11.38;8.75;;;;;;;30.51;24.46;101491.91;4962454;28;20065;-73
2023/06/18 07:37:11;;;;;;;12.80;9.77;;;;;;;30.56;24.20;101489.53;4978504;28;20617;-73
2023/06/18 07:39:36;;;;;;;14.00;9.73;;;;;;;30.54;23.84;101491.53;4956043;28;20719;-72
2023/06/18 07:42:02;;;;;;;15.57;10.73;;;;;;;30.61;24.24;101490.88;4959686;28;20054;-73
2023/06/18 07:44:28;;;;;;;11.73;9.15;;;;;;;30.82;24.15;101484.78;4957595;28;20095;-74
2023/06/18 07:46:54;;;;;;;12.98;10.10;;;;;;;30.58;24.12;101490.22;4961289;28;20034;-74
2023/06/18 07:49:21;;;;;;;17.55;11.75;;;;;;;29.77;25.31;101488.72;4958432;28;20117;-72
2023/06/18 07:51:47;;;;;;;14.02;11.45;;;;;;;30.33;24.82;101484.13;4960336;28;20035;-72
2023/06/18 07:54:13;;;;;;;16.08;11.60;;;;;;;30.56;24.47;101488.72;4959495;28;20030;-72
2023/06/18 07:56:39;;;;;;;17.42;11.32;;;;;;;31.50;22.74;101485.72;4961613;28;20120;-72
2023/06/18 07:59:04;;;;;;;17.08;11.50;;;;;;;30.89;24.23;101488.44;4964355;28;20147;-73
2023/06/18 08:01:30;;;;;;;14.05;10.65;;;;;;;30.65;24.46;101487.63;4951863;28;21251;-73
2023/06/18 08:03:55;;;;;;;14.60;11.27;;;;;;;31.65;23.88;101482.97;4962288;28;20034;-72
2023/06/18 08:06:21;;;;;;;18.02;13.43;;;;;;;31.52;23.31;101476.38;4960693;28;20054;-73
2023/06/18 08:08:49;;;;;;;18.30;14.18;;;;;;;31.30;23.63;101470.03;4965373;28;20027;-70
2023/06/18 08:11:15;;;;;;;19.08;15.40;;;;;;;31.91;23.28;101477.09;4961879;28;20042;-70
2023/06/18 08:13:41;;;;;;;14.82;11.88;;;;;;;31.76;22.99;101469.84;4965929;28;20074;-71
2023/06/18 08:16:06;;;;;;;15.80;11.27;;;;;;;31.23;24.48;101468.25;4964669;28;20096;-69
2023/06/18 08:18:34;;;;;;;18.98;12.45;;;;;;;31.58;23.39;101469.38;4965884;28;20093;-70
2023/06/18 08:21:00;;;;;;;9.25;8.35;;;;;;;32.04;23.71;101471.88;4966381;28;20042;-71
2023/06/18 08:23:26;;;;;;;15.27;11.23;;;;;;;33.35;21.56;101468.94;4963483;28;20427;-71
2023/06/18 08:25:51;;;;;;;21.80;13.60;;;;;;;32.72;20.85;101466.97;4966520;28;20279;-71
2023/06/18 08:28:17;;;;;;;12.25;8.80;;;;;;;31.62;22.56;101474.22;4963226;28;20033;-72
2023/06/18 08:30:43;;;;;;;11.18;9.98;;;;;;;32.26;23.01;101470.03;4962915;28;20511;-71
2023/06/18 08:33:09;;;;;;;11.45;9.57;;;;;;;32.52;22.20;101468.66;4962973;28;20496;-73
2023/06/18 08:35:37;;;;;;;13.73;9.93;;;;;;;32.42;21.18;101469.81;4959235;28;20532;-71
2023/06/18 08:38:03;;;;;;;12.43;10.07;;;;;;;33.20;21.34;101469.84;4967054;28;20057;-71
2023/06/18 08:40:37;;;;;;;12.55;11.13;;;;;;;32.59;21.56;101464.16;4963910;28;20129;-71
2023/06/18 08:43:04;;;;;;;11.20;9.43;;;;;;;32.96;20.76;101456.78;4964002;28;20093;-71
2023/06/18 08:45:30;;;;;;;9.75;8.25;;;;;;;33.08;19.43;101457.91;4961956;28;20105;-72
2023/06/18 08:47:58;;;;;;;11.75;9.85;;;;;;;33.04;20.77;101456.63;4965273;28;20033;-71
2023/06/18 08:50:27;;;;;;;10.75;9.10;;;;;;;32.78;20.08;101455.34;4960310;28;20100;-73
2023/06/18 08:53:00;;;;;;;9.70;8.30;;;;;;;32.18;21.08;101448.50;4964128;28;20029;-71
2023/06/18 08:55:27;;;;;;;10.80;9.05;;;;;;;32.03;20.84;101444.00;4975480;28;20531;-73
2023/06/18 08:58:01;;;;;;;9.13;8.23;;;;;;;32.70;21.98;101443.81;4968544;28;20053;-71
2023/06/18 09:00:27;;;;;;;9.70;7.07;;;;;;;32.95;19.89;101447.00;4952102;28;20059;-72
2023/06/18 09:02:53;;;;;;;8.88;7.97;;;;;;;33.34;19.54;101443.72;4970591;28;20034;-73
2023/06/18 09:05:20;;;;;;;8.73;6.72;;;;;;;33.30;20.19;101441.59;4963723;28;20829;-73
2023/06/18 09:07:47;;;;;;;14.73;13.30;;;;;;;33.38;19.22;101441.44;4962929;28;20034;-73
2023/06/18 09:10:14;;;;;;;11.85;9.40;;;;;;;33.49;18.58;101449.00;4964275;28;20122;-73
2023/06/18 09:12:40;;;;;;;8.07;7.07;;;;;;;33.47;19.24;101434.81;4958791;28;20046;-73
2023/06/18 09:15:06;;;;;;;9.95;7.80;;;;;;;33.15;18.44;101434.41;4966623;28;20030;-74
2023/06/18 09:17:33;;;;;;;8.00;7.30;;;;;;;32.79;18.81;101432.69;4964491;28;20488;-73
2023/06/18 09:19:58;;;;;;;6.35;5.82;;;;;;;32.64;18.69;101431.94;4966525;28;20142;-74
2023/06/18 09:22:24;;;;;;;7.53;5.03;;;;;;;31.49;18.80;101430.00;4960756;28;20046;-73
2023/06/18 09:25:00;;;;;;;6.95;6.03;;;;;;;31.48;19.19;101434.56;4966225;28;20037;-73
2023/06/18 09:27:32;;;;;;;10.77;7.03;;;;;;;30.31;20.73;101443.00;4961477;28;20421;-72
2023/06/18 09:29:58;;;;;;;5.28;4.80;;;;;;;30.83;19.46;101436.03;4967675;28;20229;-72
2023/06/18 09:32:24;;;;;;;8.82;6.45;;;;;;;31.08;19.80;101443.94;4959791;28;20672;-73
2023/06/18 09:34:49;;;;;;;10.43;7.00;;;;;;;31.12;19.41;101443.38;4964400;28;20518;-72
2023/06/18 09:37:16;;;;;;;7.00;5.60;;;;;;;31.29;19.67;101446.72;4964633;28;20322;-73
2023/06/18 09:39:42;;;;;;;8.88;4.88;;;;;;;31.40;20.89;101438.19;4959331;28;20142;-73
2023/06/18 09:42:09;;;;;;;8.98;5.22;;;;;;;31.15;19.00;101436.78;4964333;28;20062;-73
2023/06/18 09:44:35;;;;;;;7.68;5.57;;;;;;;30.17;20.40;101436.50;4961105;28;20045;-73
2023/06/18 09:47:03;;;;;;;7.75;5.20;;;;;;;29.47;21.41;101437.31;4968654;28;20120;-73
2023/06/18 09:49:30;;;;;;;8.95;6.70;;;;;;;29.74;21.72;101430.66;4956192;28;20413;-72
2023/06/18 09:51:56;;;;;;;8.80;6.10;;;;;;;29.96;22.28;101426.34;4967886;28;20043;-73
2023/06/18 09:54:22;;;;;;;12.57;7.03;;;;;;;29.82;22.29;101424.41;4969220;28;20412;-72
2023/06/18 09:56:59;;;;;;;8.15;5.70;;;;;;;29.50;22.62;101428.88;4942971;28;20046;-72
2023/06/18 09:59:26;;;;;;;7.68;6.07;;;;;;;28.66;22.04;101425.66;4964622;28;20527;-72
2023/06/18 10:01:51;;;;;;;6.28;4.88;;;;;;;28.23;22.76;101430.25;4962371;28;20137;-72
2023/06/18 10:04:17;;;;;;;7.45;5.68;;;;;;;28.59;22.21;101423.75;4961806;28;20042;-72
2023/06/18 10:07:19;;;;;;;7.25;5.32;;;;;;;29.52;21.78;101432.22;4963094;28;20049;-72
2023/06/18 10:09:46;;;;;;;5.00;4.50;;;;;;;29.30;20.47;101416.81;4961127;28;20049;-73
2023/06/18 10:12:15;;;;;;;4.80;4.28;;;;;;;29.69;20.48;101418.75;4958561;28;20539;-72
2023/06/18 10:14:41;;;;;;;9.95;5.72;;;;;;;29.33;21.34;101427.28;4961666;28;20631;-72
2023/06/18 10:17:26;;;;;;;6.82;5.10;;;;;;;29.60;21.49;101422.50;4964598;28;20046;-71
2023/06/18 10:20:03;;;;;;;9.00;6.88;;;;;;;29.10;21.43;101421.72;4964646;28;20559;-72
2023/06/18 10:22:36;;;;;;;7.55;5.63;;;;;;;29.76;21.39;101412.47;4960372;28;20070;-71
2023/06/18 10:25:04;;;;;;;6.35;5.30;;;;;;;29.69;20.33;101416.06;4964536;28;20039;-71
2023/06/18 10:27:30;;;;;;;4.32;3.92;;;;;;;29.93;20.06;101415.94;4962319;28;20050;-71
2023/06/18 10:29:57;;;;;;;4.40;3.53;;;;;;;30.42;19.41;101400.44;4964629;28;20034;-71
2023/06/18 10:32:23;;;;;;;7.60;6.15;;;;;;;30.97;19.54;101397.44;4960083;28;20613;-72
2023/06/18 10:34:51;;;;;;;5.82;4.38;;;;;;;30.36;19.45;101397.47;4964092;28;20080;-71
2023/06/18 10:37:17;;;;;;;4.32;3.53;;;;;;;30.36;20.46;101392.06;4954150;28;20034;-72
2023/06/18 10:39:44;;;;;;;5.03;4.43;;;;;;;30.46;20.77;101391.81;4962834;28;20168;-72
2023/06/18 10:42:14;;;;;;;5.40;4.10;;;;;;;30.78;19.93;101393.44;4962883;28;20750;-72
2023/06/18 10:45:02;;;;;;;6.10;4.18;;;;;;;31.02;20.45;101390.69;4960844;28;20050;-72
2023/06/18 10:47:29;;;;;;;6.03;4.30;;;;;;;30.80;18.04;101380.59;4962069;28;20050;-71
2023/06/18 10:50:01;;;;;;;5.60;4.05;;;;;;;29.79;18.71;101387.03;4962888;28;20066;-71
2023/06/18 10:52:30;;;;;;;6.00;3.75;;;;;;;29.07;19.28;101392.47;4958533;28;20305;-71
2023/06/18 10:55:04;;;;;;;6.05;4.53;;;;;;;28.38;20.16;101383.94;4962873;28;20034;-72
2023/06/18 10:57:30;;;;;;;4.22;3.83;;;;;;;28.52;20.76;101388.63;4959611;28;20046;-71
2023/06/18 10:59:58;;;;;;;4.38;3.30;;;;;;;28.87;19.61;101383.94;4963603;28;20037;-71
2023/06/18 11:02:34;;;;;;;6.63;4.00;;;;;;;29.47;19.80;101380.75;4960068;28;20038;-71
2023/06/18 11:05:00;;;;;;;6.55;3.53;;;;;;;30.05;19.35;101377.78;4962069;28;20037;-72
2023/06/18 11:07:27;;;;;;;4.43;3.58;;;;;;;30.44;19.13;101374.97;4960889;28;20049;-72
2023/06/18 11:09:57;;;;;;;6.85;4.05;;;;;;;31.52;18.73;101372.91;4961998;28;20291;-73
2023/06/18 11:12:28;;;;;;;7.00;3.67;;;;;;;31.03;18.83;101363.50;4961627;28;20511;-73
2023/06/18 11:15:12;;;;;;;3.70;3.17;;;;;;;31.66;18.14;101366.63;4962883;28;20035;-70
2023/06/18 11:17:40;;;;;;;3.80;3.50;;;;;;;31.38;17.53;101369.16;4960658;28;20575;-74
2023/06/18 11:20:06;;;;;;;3.78;3.47;;;;;;;31.29;18.62;101367.59;4962026;28;20273;-71